sensor_id;sensor_type;location;lat;lon;timestamp;temperature;humidity
7502;DHT22;3792;47.740;7.606;2023-06-14T00:01:14;18.30;73.00
7502;DHT22;3792;47.740;7.606;2023-06-14T00:03:41;18.30;73.20
7502;DHT22;3792;47.740;7.606;2023-06-14T00:06:08;18.30;72.90
7502;DHT22;3792;47.740;7.606;2023-06-14T00:08:36;18.20;72.80
7502;DHT22;3792;47.740;7.606;2023-06-14T00:11:03;18.10;72.10
7502;DHT22;3792;47.740;7.606;2023-06-14T00:13:30;17.70;72.00
7502;DHT22;3792;47.740;7.606;2023-06-14T00:15:57;17.60;73.80
7502;DHT22;3792;47.740;7.606;2023-06-14T00:18:24;17.60;74.70
7502;DHT22;3792;47.740;7.606;2023-06-14T00:20:55;17.70;74.20
7502;DHT22;3792;47.740;7.606;2023-06-14T00:23:22;17.80;75.00
7502;DHT22;3792;47.740;7.606;2023-06-14T00:25:50;17.80;74.20
7502;DHT22;3792;47.740;7.606;2023-06-14T00:28:17;17.80;73.70
7502;DHT22;3792;47.740;7.606;2023-06-14T00:30:44;17.70;72.70
7502;DHT22;3792;47.740;7.606;2023-06-14T00:33:12;17.60;74.00
7502;DHT22;3792;47.740;7.606;2023-06-14T00:35:40;17.70;74.20
7502;DHT22;3792;47.740;7.606;2023-06-14T00:38:07;17.50;73.70
7502;DHT22;3792;47.740;7.606;2023-06-14T00:40:34;17.40;74.50
7502;DHT22;3792;47.740;7.606;2023-06-14T00:43:02;17.40;75.50
7502;DHT22;3792;47.740;7.606;2023-06-14T00:45:29;17.40;75.60
7502;DHT22;3792;47.740;7.606;2023-06-14T00:48:01;17.30;75.00
7502;DHT22;3792;47.740;7.606;2023-06-14T00:50:29;17.30;75.40
7502;DHT22;3792;47.740;7.606;2023-06-14T00:52:57;17.20;74.80
7502;DHT22;3792;47.740;7.606;2023-06-14T00:55:25;17.10;75.90
7502;DHT22;3792;47.740;7.606;2023-06-14T00:57:53;17.20;76.20
7502;DHT22;3792;47.740;7.606;2023-06-14T01:00:22;17.20;76.20
7502;DHT22;3792;47.740;7.606;2023-06-14T01:02:49;17.30;76.40
7502;DHT22;3792;47.740;7.606;2023-06-14T01:05:16;17.40;76.40
7502;DHT22;3792;47.740;7.606;2023-06-14T01:07:55;17.40;75.40
7502;DHT22;3792;47.740;7.606;2023-06-14T01:10:34;17.20;75.30
7502;DHT22;3792;47.740;7.606;2023-06-14T01:13:07;17.10;75.90
7502;DHT22;3792;47.740;7.606;2023-06-14T01:15:39;17.00;75.40
7502;DHT22;3792;47.740;7.606;2023-06-14T01:18:07;17.00;76.60
7502;DHT22;3792;47.740;7.606;2023-06-14T01:20:43;16.70;75.60
7502;DHT22;3792;47.740;7.606;2023-06-14T01:23:11;16.60;77.40
7502;DHT22;3792;47.740;7.606;2023-06-14T01:25:38;16.50;76.60
7502;DHT22;3792;47.740;7.606;2023-06-14T01:28:06;16.60;77.90
7502;DHT22;3792;47.740;7.606;2023-06-14T01:30:36;16.70;78.30
7502;DHT22;3792;47.740;7.606;2023-06-14T01:33:04;16.80;78.90
7502;DHT22;3792;47.740;7.606;2023-06-14T01:35:32;16.80;78.60
7502;DHT22;3792;47.740;7.606;2023-06-14T01:38:00;16.80;78.80
7502;DHT22;3792;47.740;7.606;2023-06-14T01:40:29;17.00;78.50
7502;DHT22;3792;47.740;7.606;2023-06-14T01:42:58;17.00;77.80
7502;DHT22;3792;47.740;7.606;2023-06-14T01:45:25;17.00;78.60
7502;DHT22;3792;47.740;7.606;2023-06-14T01:47:52;17.00;77.50
7502;DHT22;3792;47.740;7.606;2023-06-14T01:50:20;16.90;76.90
7502;DHT22;3792;47.740;7.606;2023-06-14T01:52:47;16.50;78.50
7502;DHT22;3792;47.740;7.606;2023-06-14T01:55:14;16.20;78.70
7502;DHT22;3792;47.740;7.606;2023-06-14T01:57:44;16.10;80.10
7502;DHT22;3792;47.740;7.606;2023-06-14T02:00:13;16.30;80.80
7502;DHT22;3792;47.740;7.606;2023-06-14T02:02:40;16.50;81.00
7502;DHT22;3792;47.740;7.606;2023-06-14T02:05:07;16.60;80.70
7502;DHT22;3792;47.740;7.606;2023-06-14T02:07:34;16.80;80.40
7502;DHT22;3792;47.740;7.606;2023-06-14T02:10:02;16.80;80.40
7502;DHT22;3792;47.740;7.606;2023-06-14T02:12:29;16.80;79.80
7502;DHT22;3792;47.740;7.606;2023-06-14T02:14:57;16.80;80.40
7502;DHT22;3792;47.740;7.606;2023-06-14T02:17:24;16.90;80.60
7502;DHT22;3792;47.740;7.606;2023-06-14T02:19:51;16.90;80.20
7502;DHT22;3792;47.740;7.606;2023-06-14T02:22:18;17.00;80.40
7502;DHT22;3792;47.740;7.606;2023-06-14T02:24:47;17.00;79.60
7502;DHT22;3792;47.740;7.606;2023-06-14T02:27:14;17.00;79.20
7502;DHT22;3792;47.740;7.606;2023-06-14T02:29:42;16.80;79.20
7502;DHT22;3792;47.740;7.606;2023-06-14T02:32:10;16.70;80.50
7502;DHT22;3792;47.740;7.606;2023-06-14T02:34:37;16.80;81.10
7502;DHT22;3792;47.740;7.606;2023-06-14T02:37:06;16.70;79.80
7502;DHT22;3792;47.740;7.606;2023-06-14T02:39:33;16.60;80.00
7502;DHT22;3792;47.740;7.606;2023-06-14T02:42:02;15.90;80.50
7502;DHT22;3792;47.740;7.606;2023-06-14T02:44:29;15.50;83.00
7502;DHT22;3792;47.740;7.606;2023-06-14T02:46:56;15.50;84.10
7502;DHT22;3792;47.740;7.606;2023-06-14T02:49:25;15.60;83.40
7502;DHT22;3792;47.740;7.606;2023-06-14T02:51:52;15.60;84.50
7502;DHT22;3792;47.740;7.606;2023-06-14T02:54:19;15.80;84.30
7502;DHT22;3792;47.740;7.606;2023-06-14T02:56:46;15.90;83.80
7502;DHT22;3792;47.740;7.606;2023-06-14T02:59:13;16.00;83.40
7502;DHT22;3792;47.740;7.606;2023-06-14T03:01:40;16.10;83.20
7502;DHT22;3792;47.740;7.606;2023-06-14T03:04:08;16.20;83.10
7502;DHT22;3792;47.740;7.606;2023-06-14T03:06:36;16.30;82.90
7502;DHT22;3792;47.740;7.606;2023-06-14T03:09:05;16.30;82.90
7502;DHT22;3792;47.740;7.606;2023-06-14T03:11:33;16.40;82.60
7502;DHT22;3792;47.740;7.606;2023-06-14T03:14:00;16.40;82.50
7502;DHT22;3792;47.740;7.606;2023-06-14T03:16:29;16.40;82.90
7502;DHT22;3792;47.740;7.606;2023-06-14T03:18:57;16.30;82.40
7502;DHT22;3792;47.740;7.606;2023-06-14T03:21:24;16.30;83.40
7502;DHT22;3792;47.740;7.606;2023-06-14T03:23:53;16.30;83.40
7502;DHT22;3792;47.740;7.606;2023-06-14T03:26:20;16.30;83.60
7502;DHT22;3792;47.740;7.606;2023-06-14T03:28:47;16.30;83.90
7502;DHT22;3792;47.740;7.606;2023-06-14T03:31:15;16.30;83.80
7502;DHT22;3792;47.740;7.606;2023-06-14T03:33:42;16.30;83.20
7502;DHT22;3792;47.740;7.606;2023-06-14T03:36:09;16.30;83.50
7502;DHT22;3792;47.740;7.606;2023-06-14T03:38:36;16.30;83.50
7502;DHT22;3792;47.740;7.606;2023-06-14T03:41:05;16.30;82.30
7502;DHT22;3792;47.740;7.606;2023-06-14T03:43:32;16.20;83.20
7502;DHT22;3792;47.740;7.606;2023-06-14T03:46:00;16.20;83.30
7502;DHT22;3792;47.740;7.606;2023-06-14T03:48:27;16.20;83.60
7502;DHT22;3792;47.740;7.606;2023-06-14T03:50:54;16.10;81.60
7502;DHT22;3792;47.740;7.606;2023-06-14T03:53:21;15.20;83.10
7502;DHT22;3792;47.740;7.606;2023-06-14T03:55:49;14.80;83.40
7502;DHT22;3792;47.740;7.606;2023-06-14T03:58:19;14.50;85.40
7502;DHT22;3792;47.740;7.606;2023-06-14T04:00:46;14.50;88.10
7502;DHT22;3792;47.740;7.606;2023-06-14T04:03:13;14.70;88.50
7502;DHT22;3792;47.740;7.606;2023-06-14T04:05:41;15.00;88.30
7502;DHT22;3792;47.740;7.606;2023-06-14T04:08:10;15.20;88.60
7502;DHT22;3792;47.740;7.606;2023-06-14T04:10:40;15.40;88.80
7502;DHT22;3792;47.740;7.606;2023-06-14T04:13:07;15.60;88.90
7502;DHT22;3792;47.740;7.606;2023-06-14T04:15:39;15.70;86.70
7502;DHT22;3792;47.740;7.606;2023-06-14T04:18:07;14.70;88.50
7502;DHT22;3792;47.740;7.606;2023-06-14T04:20:35;14.70;88.60
7502;DHT22;3792;47.740;7.606;2023-06-14T04:23:11;14.50;89.70
7502;DHT22;3792;47.740;7.606;2023-06-14T04:25:39;14.60;90.80
7502;DHT22;3792;47.740;7.606;2023-06-14T04:28:11;14.80;91.00
7502;DHT22;3792;47.740;7.606;2023-06-14T04:30:39;15.00;91.00
7502;DHT22;3792;47.740;7.606;2023-06-14T04:33:06;15.30;90.90
7502;DHT22;3792;47.740;7.606;2023-06-14T04:35:33;15.30;89.20
7502;DHT22;3792;47.740;7.606;2023-06-14T04:38:01;15.40;90.00
7502;DHT22;3792;47.740;7.606;2023-06-14T04:40:30;15.30;89.70
7502;DHT22;3792;47.740;7.606;2023-06-14T04:42:59;15.40;90.00
7502;DHT22;3792;47.740;7.606;2023-06-14T04:45:26;15.20;90.20
7502;DHT22;3792;47.740;7.606;2023-06-14T04:48:00;15.30;90.40
7502;DHT22;3792;47.740;7.606;2023-06-14T04:50:27;15.40;90.80
7502;DHT22;3792;47.740;7.606;2023-06-14T04:52:55;15.70;90.90
7502;DHT22;3792;47.740;7.606;2023-06-14T04:55:22;15.90;90.60
7502;DHT22;3792;47.740;7.606;2023-06-14T04:57:50;16.00;89.20
7502;DHT22;3792;47.740;7.606;2023-06-14T05:00:19;16.20;90.70
7502;DHT22;3792;47.740;7.606;2023-06-14T05:02:46;16.30;90.80
7502;DHT22;3792;47.740;7.606;2023-06-14T05:05:17;16.50;90.90
7502;DHT22;3792;47.740;7.606;2023-06-14T05:07:45;16.70;90.80
7502;DHT22;3792;47.740;7.606;2023-06-14T05:10:12;16.80;90.40
7502;DHT22;3792;47.740;7.606;2023-06-14T05:12:39;17.00;89.60
7502;DHT22;3792;47.740;7.606;2023-06-14T05:15:09;17.10;90.00
7502;DHT22;3792;47.740;7.606;2023-06-14T05:17:36;17.00;89.40
7502;DHT22;3792;47.740;7.606;2023-06-14T05:20:07;17.10;88.30
7502;DHT22;3792;47.740;7.606;2023-06-14T05:22:37;17.00;89.30
7502;DHT22;3792;47.740;7.606;2023-06-14T05:25:04;17.10;89.30
7502;DHT22;3792;47.740;7.606;2023-06-14T05:27:31;17.10;88.50
7502;DHT22;3792;47.740;7.606;2023-06-14T05:30:01;16.90;88.20
7502;DHT22;3792;47.740;7.606;2023-06-14T05:32:29;16.80;88.60
7502;DHT22;3792;47.740;7.606;2023-06-14T05:34:57;16.70;88.30
7502;DHT22;3792;47.740;7.606;2023-06-14T05:37:24;16.50;87.50
7502;DHT22;3792;47.740;7.606;2023-06-14T05:39:52;16.50;89.10
7502;DHT22;3792;47.740;7.606;2023-06-14T05:42:19;16.40;90.00
7502;DHT22;3792;47.740;7.606;2023-06-14T05:44:46;16.60;90.20
7502;DHT22;3792;47.740;7.606;2023-06-14T05:47:13;16.70;90.10
7502;DHT22;3792;47.740;7.606;2023-06-14T05:49:40;16.90;89.30
7502;DHT22;3792;47.740;7.606;2023-06-14T05:52:08;17.10;87.70
7502;DHT22;3792;47.740;7.606;2023-06-14T05:54:35;17.20;86.60
7502;DHT22;3792;47.740;7.606;2023-06-14T05:57:04;17.30;85.80
7502;DHT22;3792;47.740;7.606;2023-06-14T05:59:32;17.40;85.80
7502;DHT22;3792;47.740;7.606;2023-06-14T06:01:59;17.50;87.80
7502;DHT22;3792;47.740;7.606;2023-06-14T06:04:26;17.60;88.10
7502;DHT22;3792;47.740;7.606;2023-06-14T06:06:53;17.50;85.80
7502;DHT22;3792;47.740;7.606;2023-06-14T06:09:20;17.50;88.10
7502;DHT22;3792;47.740;7.606;2023-06-14T06:11:47;17.50;87.40
7502;DHT22;3792;47.740;7.606;2023-06-14T06:14:15;17.50;87.90
7502;DHT22;3792;47.740;7.606;2023-06-14T06:16:42;17.70;86.80
7502;DHT22;3792;47.740;7.606;2023-06-14T06:19:09;17.80;85.50
7502;DHT22;3792;47.740;7.606;2023-06-14T06:21:36;17.90;86.20
7502;DHT22;3792;47.740;7.606;2023-06-14T06:24:05;18.00;85.60
7502;DHT22;3792;47.740;7.606;2023-06-14T06:26:32;18.10;86.30
7502;DHT22;3792;47.740;7.606;2023-06-14T06:28:59;18.20;86.00
7502;DHT22;3792;47.740;7.606;2023-06-14T06:31:27;18.30;86.40
7502;DHT22;3792;47.740;7.606;2023-06-14T06:33:54;18.50;85.90
7502;DHT22;3792;47.740;7.606;2023-06-14T06:36:22;18.60;85.50
7502;DHT22;3792;47.740;7.606;2023-06-14T06:38:49;18.60;86.00
7502;DHT22;3792;47.740;7.606;2023-06-14T06:41:16;18.80;87.70
7502;DHT22;3792;47.740;7.606;2023-06-14T06:43:43;18.90;89.70
7502;DHT22;3792;47.740;7.606;2023-06-14T06:46:10;19.20;87.00
7502;DHT22;3792;47.740;7.606;2023-06-14T06:48:39;19.10;85.10
7502;DHT22;3792;47.740;7.606;2023-06-14T06:51:06;19.10;84.90
7502;DHT22;3792;47.740;7.606;2023-06-14T06:53:33;19.20;84.60
7502;DHT22;3792;47.740;7.606;2023-06-14T06:56:00;19.20;83.60
7502;DHT22;3792;47.740;7.606;2023-06-14T06:58:27;19.20;82.40
7502;DHT22;3792;47.740;7.606;2023-06-14T07:00:54;19.10;81.10
7502;DHT22;3792;47.740;7.606;2023-06-14T07:03:21;19.10;81.70
7502;DHT22;3792;47.740;7.606;2023-06-14T07:05:50;19.20;82.50
7502;DHT22;3792;47.740;7.606;2023-06-14T07:08:17;19.20;82.00
7502;DHT22;3792;47.740;7.606;2023-06-14T07:10:44;19.20;82.00
7502;DHT22;3792;47.740;7.606;2023-06-14T07:13:11;19.30;82.70
7502;DHT22;3792;47.740;7.606;2023-06-14T07:15:38;19.30;83.10
7502;DHT22;3792;47.740;7.606;2023-06-14T07:18:05;19.40;82.60
7502;DHT22;3792;47.740;7.606;2023-06-14T07:20:33;19.50;82.10
7502;DHT22;3792;47.740;7.606;2023-06-14T07:23:02;19.40;81.10
7502;DHT22;3792;47.740;7.606;2023-06-14T07:25:29;19.50;81.50
7502;DHT22;3792;47.740;7.606;2023-06-14T07:27:56;19.60;81.40
7502;DHT22;3792;47.740;7.606;2023-06-14T07:30:23;19.60;80.70
7502;DHT22;3792;47.740;7.606;2023-06-14T07:32:52;19.50;82.30
7502;DHT22;3792;47.740;7.606;2023-06-14T07:35:20;19.40;81.40
7502;DHT22;3792;47.740;7.606;2023-06-14T07:37:47;19.60;82.70
7502;DHT22;3792;47.740;7.606;2023-06-14T07:40:16;19.60;81.70
7502;DHT22;3792;47.740;7.606;2023-06-14T07:42:43;19.80;81.80
7502;DHT22;3792;47.740;7.606;2023-06-14T07:45:14;19.70;81.70
7502;DHT22;3792;47.740;7.606;2023-06-14T07:47:42;19.70;81.10
7502;DHT22;3792;47.740;7.606;2023-06-14T07:50:09;19.80;80.90
7502;DHT22;3792;47.740;7.606;2023-06-14T07:52:37;19.90;80.20
7502;DHT22;3792;47.740;7.606;2023-06-14T07:55:05;20.00;79.50
7502;DHT22;3792;47.740;7.606;2023-06-14T07:57:33;19.90;78.50
7502;DHT22;3792;47.740;7.606;2023-06-14T08:00:00;20.00;79.00
7502;DHT22;3792;47.740;7.606;2023-06-14T08:02:27;20.20;78.10
7502;DHT22;3792;47.740;7.606;2023-06-14T08:04:54;20.20;77.60
7502;DHT22;3792;47.740;7.606;2023-06-14T08:07:21;20.20;77.70
7502;DHT22;3792;47.740;7.606;2023-06-14T08:09:48;20.30;76.60
7502;DHT22;3792;47.740;7.606;2023-06-14T08:12:15;20.30;77.30
7502;DHT22;3792;47.740;7.606;2023-06-14T08:14:44;20.40;76.80
7502;DHT22;3792;47.740;7.606;2023-06-14T08:17:11;20.50;76.40
7502;DHT22;3792;47.740;7.606;2023-06-14T08:19:38;20.60;77.90
7502;DHT22;3792;47.740;7.606;2023-06-14T08:22:05;20.80;77.90
7502;DHT22;3792;47.740;7.606;2023-06-14T08:24:32;20.80;76.80
7502;DHT22;3792;47.740;7.606;2023-06-14T08:26:59;21.00;76.30
7502;DHT22;3792;47.740;7.606;2023-06-14T08:29:27;21.20;78.40
7502;DHT22;3792;47.740;7.606;2023-06-14T08:31:58;21.20;76.30
7502;DHT22;3792;47.740;7.606;2023-06-14T08:34:25;21.30;76.10
7502;DHT22;3792;47.740;7.606;2023-06-14T08:36:52;21.50;80.30
7502;DHT22;3792;47.740;7.606;2023-06-14T08:39:19;21.50;76.70
7502;DHT22;3792;47.740;7.606;2023-06-14T08:41:47;21.50;76.50
7502;DHT22;3792;47.740;7.606;2023-06-14T08:44:15;21.60;81.40
7502;DHT22;3792;47.740;7.606;2023-06-14T08:46:42;21.70;80.30
7502;DHT22;3792;47.740;7.606;2023-06-14T08:49:12;21.90;80.30
7502;DHT22;3792;47.740;7.606;2023-06-14T08:51:39;21.90;78.80
7502;DHT22;3792;47.740;7.606;2023-06-14T08:54:07;22.10;78.80
7502;DHT22;3792;47.740;7.606;2023-06-14T08:56:37;22.20;81.70
7502;DHT22;3792;47.740;7.606;2023-06-14T08:59:08;22.30;77.20
7502;DHT22;3792;47.740;7.606;2023-06-14T09:01:36;22.50;78.60
7502;DHT22;3792;47.740;7.606;2023-06-14T09:04:04;22.80;78.90
7502;DHT22;3792;47.740;7.606;2023-06-14T09:06:33;22.90;78.10
7502;DHT22;3792;47.740;7.606;2023-06-14T09:09:02;23.20;79.90
7502;DHT22;3792;47.740;7.606;2023-06-14T09:11:30;23.30;77.00
7502;DHT22;3792;47.740;7.606;2023-06-14T09:13:57;23.40;74.30
7502;DHT22;3792;47.740;7.606;2023-06-14T09:16:25;23.50;73.60
7502;DHT22;3792;47.740;7.606;2023-06-14T09:18:54;23.50;74.30
7502;DHT22;3792;47.740;7.606;2023-06-14T09:21:21;23.60;73.40
7502;DHT22;3792;47.740;7.606;2023-06-14T09:23:49;23.70;71.10
7502;DHT22;3792;47.740;7.606;2023-06-14T09:26:17;23.80;72.70
7502;DHT22;3792;47.740;7.606;2023-06-14T09:28:45;23.90;71.50
7502;DHT22;3792;47.740;7.606;2023-06-14T09:31:13;24.20;72.00
7502;DHT22;3792;47.740;7.606;2023-06-14T09:33:42;24.30;71.20
7502;DHT22;3792;47.740;7.606;2023-06-14T09:36:15;24.60;73.50
7502;DHT22;3792;47.740;7.606;2023-06-14T09:38:44;24.60;71.10
7502;DHT22;3792;47.740;7.606;2023-06-14T09:41:19;24.70;71.40
7502;DHT22;3792;47.740;7.606;2023-06-14T09:43:47;24.70;68.90
7502;DHT22;3792;47.740;7.606;2023-06-14T09:46:15;24.70;65.40
7502;DHT22;3792;47.740;7.606;2023-06-14T09:48:42;24.70;64.40
7502;DHT22;3792;47.740;7.606;2023-06-14T09:51:10;24.80;66.70
7502;DHT22;3792;47.740;7.606;2023-06-14T09:53:41;25.00;69.80
7502;DHT22;3792;47.740;7.606;2023-06-14T09:56:10;25.20;68.50
7502;DHT22;3792;47.740;7.606;2023-06-14T09:58:39;25.40;67.20
7502;DHT22;3792;47.740;7.606;2023-06-14T10:01:08;25.50;66.70
7502;DHT22;3792;47.740;7.606;2023-06-14T10:03:39;25.60;63.30
7502;DHT22;3792;47.740;7.606;2023-06-14T10:06:09;25.60;62.60
7502;DHT22;3792;47.740;7.606;2023-06-14T10:08:36;25.80;66.70
7502;DHT22;3792;47.740;7.606;2023-06-14T10:11:04;25.80;63.00
7502;DHT22;3792;47.740;7.606;2023-06-14T10:13:32;25.80;62.70
7502;DHT22;3792;47.740;7.606;2023-06-14T10:16:07;25.90;63.10
7502;DHT22;3792;47.740;7.606;2023-06-14T10:18:42;26.10;63.10
7502;DHT22;3792;47.740;7.606;2023-06-14T10:21:18;26.30;63.40
7502;DHT22;3792;47.740;7.606;2023-06-14T10:23:50;26.20;59.80
7502;DHT22;3792;47.740;7.606;2023-06-14T10:26:23;26.20;61.50
7502;DHT22;3792;47.740;7.606;2023-06-14T10:28:57;26.30;61.90
7502;DHT22;3792;47.740;7.606;2023-06-14T10:34:24;26.40;59.80
7502;DHT22;3792;47.740;7.606;2023-06-14T10:37:02;26.70;61.20
7502;DHT22;3792;47.740;7.606;2023-06-14T10:39:30;26.60;59.50
7502;DHT22;3792;47.740;7.606;2023-06-14T10:42:01;26.70;58.70
7502;DHT22;3792;47.740;7.606;2023-06-14T10:44:43;26.80;60.10
7502;DHT22;3792;47.740;7.606;2023-06-14T10:47:20;27.10;60.10
7502;DHT22;3792;47.740;7.606;2023-06-14T10:49:51;27.20;58.10
7502;DHT22;3792;47.740;7.606;2023-06-14T10:52:22;27.20;58.00
7502;DHT22;3792;47.740;7.606;2023-06-14T10:55:03;27.30;59.00
7502;DHT22;3792;47.740;7.606;2023-06-14T10:57:32;27.30;58.80
7502;DHT22;3792;47.740;7.606;2023-06-14T10:59:59;27.30;58.60
7502;DHT22;3792;47.740;7.606;2023-06-14T11:03:23;27.40;57.70
7502;DHT22;3792;47.740;7.606;2023-06-14T11:05:58;27.40;57.80
7502;DHT22;3792;47.740;7.606;2023-06-14T11:11:38;27.30;54.80
7502;DHT22;3792;47.740;7.606;2023-06-14T11:14:08;27.50;57.40
7502;DHT22;3792;47.740;7.606;2023-06-14T11:16:36;27.70;57.60
7502;DHT22;3792;47.740;7.606;2023-06-14T11:19:03;27.80;55.00
7502;DHT22;3792;47.740;7.606;2023-06-14T11:21:33;27.60;54.60
7502;DHT22;3792;47.740;7.606;2023-06-14T11:24:00;27.60;54.40
7502;DHT22;3792;47.740;7.606;2023-06-14T11:26:28;27.70;53.50
7502;DHT22;3792;47.740;7.606;2023-06-14T11:28:56;27.90;54.50
7502;DHT22;3792;47.740;7.606;2023-06-14T11:31:24;27.80;52.80
7502;DHT22;3792;47.740;7.606;2023-06-14T11:33:54;27.70;52.60
7502;DHT22;3792;47.740;7.606;2023-06-14T11:36:22;27.80;54.50
7502;DHT22;3792;47.740;7.606;2023-06-14T11:38:58;27.90;56.30
7502;DHT22;3792;47.740;7.606;2023-06-14T11:41:25;28.20;53.50
7502;DHT22;3792;47.740;7.606;2023-06-14T11:43:53;28.10;53.30
7502;DHT22;3792;47.740;7.606;2023-06-14T11:46:20;28.40;53.60
7502;DHT22;3792;47.740;7.606;2023-06-14T11:48:52;28.30;51.70
7502;DHT22;3792;47.740;7.606;2023-06-14T11:51:19;28.30;52.40
7502;DHT22;3792;47.740;7.606;2023-06-14T11:53:47;28.60;54.80
7502;DHT22;3792;47.740;7.606;2023-06-14T11:56:15;28.80;53.60
7502;DHT22;3792;47.740;7.606;2023-06-14T11:58:43;28.70;52.30
7502;DHT22;3792;47.740;7.606;2023-06-14T12:01:29;28.80;52.20
7502;DHT22;3792;47.740;7.606;2023-06-14T12:04:05;28.60;51.90
7502;DHT22;3792;47.740;7.606;2023-06-14T12:07:11;28.50;51.40
7502;DHT22;3792;47.740;7.606;2023-06-14T12:09:42;28.40;50.90
7502;DHT22;3792;47.740;7.606;2023-06-14T12:12:12;28.60;51.30
7502;DHT22;3792;47.740;7.606;2023-06-14T12:14:41;28.70;51.80
7502;DHT22;3792;47.740;7.606;2023-06-14T12:17:09;29.00;52.50
7502;DHT22;3792;47.740;7.606;2023-06-14T12:19:42;28.90;51.30
7502;DHT22;3792;47.740;7.606;2023-06-14T12:22:16;28.90;51.20
7502;DHT22;3792;47.740;7.606;2023-06-14T12:24:46;28.90;52.00
7502;DHT22;3792;47.740;7.606;2023-06-14T12:30:28;28.60;50.30
7502;DHT22;3792;47.740;7.606;2023-06-14T12:32:56;28.50;52.70
7502;DHT22;3792;47.740;7.606;2023-06-14T12:35:23;28.70;51.20
7502;DHT22;3792;47.740;7.606;2023-06-14T12:37:50;28.80;51.70
7502;DHT22;3792;47.740;7.606;2023-06-14T12:40:17;28.90;52.50
7502;DHT22;3792;47.740;7.606;2023-06-14T12:42:45;28.70;49.90
7502;DHT22;3792;47.740;7.606;2023-06-14T12:45:13;28.60;50.90
7502;DHT22;3792;47.740;7.606;2023-06-14T12:47:42;28.80;50.90
7502;DHT22;3792;47.740;7.606;2023-06-14T12:50:09;28.90;50.60
7502;DHT22;3792;47.740;7.606;2023-06-14T12:52:36;29.00;51.60
7502;DHT22;3792;47.740;7.606;2023-06-14T12:55:04;29.10;50.90
7502;DHT22;3792;47.740;7.606;2023-06-14T12:57:36;28.90;51.70
7502;DHT22;3792;47.740;7.606;2023-06-14T13:00:05;29.00;51.20
7502;DHT22;3792;47.740;7.606;2023-06-14T13:02:33;29.10;51.20
7502;DHT22;3792;47.740;7.606;2023-06-14T13:13:30;29.50;51.10
7502;DHT22;3792;47.740;7.606;2023-06-14T13:16:16;29.50;51.80
7502;DHT22;3792;47.740;7.606;2023-06-14T13:18:43;29.60;51.60
7502;DHT22;3792;47.740;7.606;2023-06-14T13:21:13;29.90;52.20
7502;DHT22;3792;47.740;7.606;2023-06-14T13:23:40;30.00;50.80
7502;DHT22;3792;47.740;7.606;2023-06-14T13:26:07;29.60;49.20
7502;DHT22;3792;47.740;7.606;2023-06-14T13:28:36;29.50;49.60
7502;DHT22;3792;47.740;7.606;2023-06-14T13:31:04;29.50;50.40
7502;DHT22;3792;47.740;7.606;2023-06-14T13:33:32;29.40;51.10
7502;DHT22;3792;47.740;7.606;2023-06-14T13:35:59;29.50;51.60
7502;DHT22;3792;47.740;7.606;2023-06-14T13:38:26;29.60;50.90
7502;DHT22;3792;47.740;7.606;2023-06-14T13:40:53;29.40;50.70
7502;DHT22;3792;47.740;7.606;2023-06-14T13:43:20;29.40;50.70
7502;DHT22;3792;47.740;7.606;2023-06-14T13:45:49;29.50;49.80
7502;DHT22;3792;47.740;7.606;2023-06-14T13:48:18;29.60;50.80
7502;DHT22;3792;47.740;7.606;2023-06-14T13:53:20;29.60;50.10
7502;DHT22;3792;47.740;7.606;2023-06-14T13:55:47;29.70;51.60
7502;DHT22;3792;47.740;7.606;2023-06-14T13:58:14;29.70;51.10
7502;DHT22;3792;47.740;7.606;2023-06-14T14:00:41;29.70;50.10
7502;DHT22;3792;47.740;7.606;2023-06-14T14:03:10;29.70;50.40
7502;DHT22;3792;47.740;7.606;2023-06-14T14:05:37;29.60;50.70
7502;DHT22;3792;47.740;7.606;2023-06-14T14:08:04;29.50;50.20
7502;DHT22;3792;47.740;7.606;2023-06-14T14:10:31;29.70;50.50
7502;DHT22;3792;47.740;7.606;2023-06-14T14:12:58;29.90;50.30
7502;DHT22;3792;47.740;7.606;2023-06-14T14:15:25;29.80;49.60
7502;DHT22;3792;47.740;7.606;2023-06-14T14:17:52;29.70;49.70
7502;DHT22;3792;47.740;7.606;2023-06-14T14:20:21;29.50;49.80
7502;DHT22;3792;47.740;7.606;2023-06-14T14:22:48;29.60;49.60
7502;DHT22;3792;47.740;7.606;2023-06-14T14:25:15;29.50;49.30
7502;DHT22;3792;47.740;7.606;2023-06-14T14:27:42;29.70;50.20
7502;DHT22;3792;47.740;7.606;2023-06-14T14:30:10;29.70;51.00
7502;DHT22;3792;47.740;7.606;2023-06-14T14:32:39;29.40;50.20
7502;DHT22;3792;47.740;7.606;2023-06-14T14:35:07;29.30;49.80
7502;DHT22;3792;47.740;7.606;2023-06-14T14:37:35;29.30;51.20
7502;DHT22;3792;47.740;7.606;2023-06-14T14:40:03;29.30;49.90
7502;DHT22;3792;47.740;7.606;2023-06-14T14:42:31;29.60;51.60
7502;DHT22;3792;47.740;7.606;2023-06-14T14:44:58;29.50;50.60
7502;DHT22;3792;47.740;7.606;2023-06-14T14:47:25;29.60;49.50
7502;DHT22;3792;47.740;7.606;2023-06-14T14:49:52;29.30;49.90
7502;DHT22;3792;47.740;7.606;2023-06-14T14:52:19;29.20;49.80
7502;DHT22;3792;47.740;7.606;2023-06-14T14:54:47;29.00;50.40
7502;DHT22;3792;47.740;7.606;2023-06-14T14:57:15;29.10;51.40
7502;DHT22;3792;47.740;7.606;2023-06-14T14:59:42;29.20;50.40
7502;DHT22;3792;47.740;7.606;2023-06-14T15:02:10;29.30;50.30
7502;DHT22;3792;47.740;7.606;2023-06-14T15:04:37;29.00;49.70
7502;DHT22;3792;47.740;7.606;2023-06-14T15:07:04;29.10;50.60
7502;DHT22;3792;47.740;7.606;2023-06-14T15:09:31;29.20;50.10
7502;DHT22;3792;47.740;7.606;2023-06-14T15:12:00;29.40;50.90
7502;DHT22;3792;47.740;7.606;2023-06-14T15:14:28;29.30;49.40
7502;DHT22;3792;47.740;7.606;2023-06-14T15:16:55;29.20;49.90
7502;DHT22;3792;47.740;7.606;2023-06-14T15:19:23;29.10;49.90
7502;DHT22;3792;47.740;7.606;2023-06-14T15:21:50;28.90;50.30
7502;DHT22;3792;47.740;7.606;2023-06-14T15:24:17;29.00;50.40
7502;DHT22;3792;47.740;7.606;2023-06-14T15:26:45;28.80;50.50
7502;DHT22;3792;47.740;7.606;2023-06-14T15:29:13;28.80;50.20
7502;DHT22;3792;47.740;7.606;2023-06-14T15:31:40;28.90;50.60
7502;DHT22;3792;47.740;7.606;2023-06-14T15:34:07;29.00;50.80
7502;DHT22;3792;47.740;7.606;2023-06-14T15:36:34;29.10;50.90
7502;DHT22;3792;47.740;7.606;2023-06-14T15:39:01;28.90;50.20
7502;DHT22;3792;47.740;7.606;2023-06-14T15:41:29;28.70;50.00
7502;DHT22;3792;47.740;7.606;2023-06-14T15:43:56;28.70;50.30
7502;DHT22;3792;47.740;7.606;2023-06-14T15:46:25;28.70;50.20
7502;DHT22;3792;47.740;7.606;2023-06-14T15:48:52;28.60;49.70
7502;DHT22;3792;47.740;7.606;2023-06-14T15:51:19;28.60;49.90
7502;DHT22;3792;47.740;7.606;2023-06-14T15:53:46;28.80;50.80
7502;DHT22;3792;47.740;7.606;2023-06-14T15:56:13;28.70;49.40
7502;DHT22;3792;47.740;7.606;2023-06-14T15:58:40;28.70;50.50
7502;DHT22;3792;47.740;7.606;2023-06-14T16:01:07;28.80;50.40
7502;DHT22;3792;47.740;7.606;2023-06-14T16:03:36;28.70;50.30
7502;DHT22;3792;47.740;7.606;2023-06-14T16:06:03;28.80;51.30
7502;DHT22;3792;47.740;7.606;2023-06-14T16:08:30;28.70;50.30
7502;DHT22;3792;47.740;7.606;2023-06-14T16:10:57;28.70;50.50
7502;DHT22;3792;47.740;7.606;2023-06-14T16:13:24;28.80;50.60
7502;DHT22;3792;47.740;7.606;2023-06-14T16:15:51;28.80;51.00
7502;DHT22;3792;47.740;7.606;2023-06-14T16:18:18;28.40;50.50
7502;DHT22;3792;47.740;7.606;2023-06-14T16:20:46;28.20;49.70
7502;DHT22;3792;47.740;7.606;2023-06-14T16:23:14;27.90;49.80
7502;DHT22;3792;47.740;7.606;2023-06-14T16:25:41;27.80;50.90
7502;DHT22;3792;47.740;7.606;2023-06-14T16:28:08;28.00;51.30
7502;DHT22;3792;47.740;7.606;2023-06-14T16:30:35;28.00;51.40